Airport Name : Camp Pendleton MCAS

Other Name : Camp Pendleton

ICAO : KNFG

IATA :

FAA : NFG

Latitude : 33.30125

Longitude : -117.355147

Country : United States

Local Date and Time : 18 Jul 2024 17:15

 

TAF (Terminal Aerodrome Forecast)

TAF KNFG 1815/1915 VRB05KT 9999 OVC011 QNH2996INS BECMG 1817/1819 22008KT SKC QNH2992INS BECMG 1823/1901 VRB05KT QNH2992INS FM190430 VRB05KT 9999 BKN010 QNH2993INS T27/1821Z T19/1912Z

 

METAR (METeorological Aerodrome Report)

KNFG 182155Z 22007G17KT 10SM CLR 27/18 A2996 RMK AO2 SLP145 T02670178

KNFG 182055Z 22008G15KT 10SM CLR 27/18 A2997 RMK AO2 SLP147 T02720183 58003